Time;durP1;ratioP1;P1;durP2;ratioP2;P2;SDS_P1;SDS_P2;PMS_P1;PMS_P2;Temp;Humidity;BMP_temperature;BMP_pressure;BME280_temperature;BME280_humidity;BME280_pressure;Samples;Min_cycle;Max_cycle;Signal;HPM_P1;HPM_P2
2024/02/07 00:00:57;;;;;;;6.20;3.63;;;9.10;99.90;;;;;;5045437;28;20464;-58
2024/02/07 00:03:22;;;;;;;9.57;3.53;;;9.10;99.90;;;;;;5047186;28;20238;-58
2024/02/07 00:05:48;;;;;;;9.37;3.30;;;9.10;99.90;;;;;;5048305;28;20468;-61
2024/02/07 00:08:14;;;;;;;5.30;3.40;;;9.10;99.90;;;;;;5048328;28;20207;-58
2024/02/07 00:10:39;;;;;;;7.47;4.23;;;9.10;99.90;;;;;;5045902;28;20175;-58
2024/02/07 00:13:05;;;;;;;6.77;3.60;;;9.10;99.90;;;;;;5048455;28;20272;-60
2024/02/07 00:15:30;;;;;;;4.97;4.17;;;9.00;99.90;;;;;;5040158;28;20218;-60
2024/02/07 00:17:58;;;;;;;5.00;3.53;;;9.00;99.90;;;;;;5048887;28;20203;-60
2024/02/07 00:20:23;;;;;;;6.70;3.73;;;9.00;99.90;;;;;;5045415;28;20269;-58
2024/02/07 00:22:49;;;;;;;8.57;3.80;;;9.00;99.90;;;;;;5044798;28;20599;-58
2024/02/07 00:25:14;;;;;;;6.17;3.60;;;9.00;99.90;;;;;;5040494;28;20179;-59
2024/02/07 00:27:40;;;;;;;6.97;4.57;;;9.00;99.90;;;;;;5050530;28;20202;-58
2024/02/07 00:30:07;;;;;;;6.77;3.23;;;9.00;99.90;;;;;;5043463;28;20179;-54
2024/02/07 00:32:32;;;;;;;6.00;3.67;;;9.00;99.90;;;;;;5046062;28;20186;-58
2024/02/07 00:34:58;;;;;;;6.87;4.30;;;9.00;99.90;;;;;;5036670;28;20434;-57
2024/02/07 00:37:23;;;;;;;5.13;3.33;;;9.00;99.90;;;;;;5036892;28;20214;-54
2024/02/07 00:39:49;;;;;;;4.70;3.67;;;9.00;99.90;;;;;;5050891;28;20226;-56
2024/02/07 00:42:15;;;;;;;4.60;3.30;;;9.00;99.90;;;;;;5047785;28;20206;-58
2024/02/07 00:44:40;;;;;;;7.37;4.00;;;9.00;99.90;;;;;;5045286;28;20187;-56
2024/02/07 00:47:06;;;;;;;3.77;2.73;;;9.00;99.90;;;;;;5041135;28;20218;-58
2024/02/07 00:49:32;;;;;;;4.43;3.60;;;9.00;99.90;;;;;;5050130;28;20193;-57
2024/02/07 00:51:58;;;;;;;13.87;4.43;;;9.00;99.90;;;;;;5040976;28;20179;-57
2024/02/07 00:54:24;;;;;;;5.37;4.17;;;9.00;99.90;;;;;;5046922;28;20566;-55
2024/02/07 00:56:50;;;;;;;6.63;5.17;;;9.00;99.90;;;;;;5045074;28;20454;-58
2024/02/07 00:59:16;;;;;;;10.57;4.10;;;9.00;99.90;;;;;;5057098;22;22211;-60
2024/02/07 01:01:41;;;;;;;5.57;3.27;;;9.00;99.90;;;;;;5068450;28;20417;-62
2024/02/07 01:04:07;;;;;;;4.90;3.40;;;9.00;99.90;;;;;;5071931;28;20546;-62
2024/02/07 01:06:33;;;;;;;6.37;3.60;;;9.00;99.90;;;;;;5075244;28;20175;-62
2024/02/07 01:08:58;;;;;;;9.73;3.70;;;9.00;99.90;;;;;;5072017;28;20214;-64
2024/02/07 01:11:24;;;;;;;4.90;2.67;;;9.10;99.90;;;;;;5072091;28;20196;-64
2024/02/07 01:13:50;;;;;;;4.83;1.83;;;9.00;99.90;;;;;;5070764;28;20186;-63
2024/02/07 01:16:16;;;;;;;3.37;1.60;;;8.80;99.90;;;;;;5070466;28;20178;-62
2024/02/07 01:18:42;;;;;;;1.80;1.37;;;8.60;99.90;;;;;;5071768;28;20243;-62
2024/02/07 01:21:08;;;;;;;2.13;1.10;;;8.40;99.90;;;;;;5068924;28;20450;-62
2024/02/07 01:23:37;;;;;;;0.70;0.70;;;8.20;99.90;;;;;;5071937;28;20568;-63
2024/02/07 01:26:03;;;;;;;3.10;2.80;;;8.10;99.90;;;;;;5071952;28;20424;-63
2024/02/07 01:28:28;;;;;;;2.20;0.90;;;7.90;99.90;;;;;;5071895;28;20418;-64
2024/02/07 01:30:54;;;;;;;0.60;0.60;;;7.80;99.90;;;;;;5069732;28;20443;-63
2024/02/07 01:33:20;;;;;;;0.90;0.80;;;7.70;99.90;;;;;;5066565;28;20196;-63
2024/02/07 01:35:46;;;;;;;1.13;0.90;;;7.60;99.90;;;;;;5071431;28;20408;-63
2024/02/07 01:38:17;;;;;;;0.97;0.83;;;7.50;99.90;;;;;;5071850;28;20422;-63
2024/02/07 01:40:47;;;;;;;0.80;0.80;;;7.50;99.90;;;;;;5071520;28;20435;-64
2024/02/07 01:43:13;;;;;;;1.43;0.70;;;7.40;99.90;;;;;;5071481;28;20462;-63
2024/02/07 01:45:41;;;;;;;0.80;0.70;;;7.30;99.90;;;;;;5071329;28;20424;-62
2024/02/07 01:48:08;;;;;;;2.07;0.70;;;7.10;99.90;;;;;;5067850;28;20513;-62
2024/02/07 01:50:39;;;;;;;0.70;0.70;;;7.10;99.90;;;;;;5071068;28;20773;-62
2024/02/07 01:53:07;;;;;;;0.60;0.60;;;7.00;99.90;;;;;;5071279;28;20425;-63
2024/02/07 01:55:33;;;;;;;0.80;0.80;;;6.90;99.90;;;;;;5071083;28;20426;-62
2024/02/07 01:58:03;;;;;;;0.70;0.70;;;6.70;99.90;;;;;;5071065;28;20467;-62
2024/02/07 02:00:31;;;;;;;0.77;0.67;;;6.70;99.90;;;;;;5068189;28;20446;-62
2024/02/07 02:02:58;;;;;;;2.13;0.77;;;6.60;99.90;;;;;;5070357;28;20467;-63
2024/02/07 02:05:24;;;;;;;2.50;0.83;;;6.50;99.90;;;;;;5065933;28;20433;-63
2024/02/07 02:07:50;;;;;;;1.43;0.80;;;6.50;99.90;;;;;;5073035;28;20418;-63
2024/02/07 02:10:17;;;;;;;1.17;0.80;;;6.40;99.90;;;;;;5070830;28;20526;-63
2024/02/07 02:12:44;;;;;;;0.90;0.90;;;6.30;99.90;;;;;;5069999;28;20420;-63
2024/02/07 02:15:09;;;;;;;0.70;0.70;;;6.10;99.90;;;;;;5070951;28;20429;-63
2024/02/07 02:17:35;;;;;;;1.63;0.90;;;6.10;99.90;;;;;;5070501;28;20474;-63
2024/02/07 02:20:04;;;;;;;0.73;0.73;;;6.10;99.90;;;;;;5068228;28;20238;-62
2024/02/07 02:23:17;;;;;;;0.90;0.90;;;6.10;99.90;;;;;;5067522;28;20461;-63
2024/02/07 02:26:05;;;;;;;1.47;0.93;;;6.00;99.90;;;;;;5051657;28;20950;-63
2024/02/07 02:28:52;;;;;;;2.53;0.90;;;6.00;99.90;;;;;;5067678;28;20428;-63
2024/02/07 02:31:19;;;;;;;1.47;0.80;;;5.90;99.90;;;;;;5070963;28;20903;-64
2024/02/07 02:33:47;;;;;;;1.47;0.70;;;5.90;99.90;;;;;;5071618;28;20456;-62
2024/02/07 02:36:12;;;;;;;0.90;0.80;;;5.80;99.90;;;;;;5070639;28;20570;-63
2024/02/07 02:38:38;;;;;;;2.73;0.93;;;5.80;99.90;;;;;;5069929;28;20474;-64
2024/02/07 02:41:07;;;;;;;1.17;1.07;;;5.80;99.90;;;;;;5070354;28;20208;-62
2024/02/07 02:43:33;;;;;;;1.27;1.17;;;5.80;99.90;;;;;;5069964;28;20654;-62
2024/02/07 02:45:58;;;;;;;0.63;0.63;;;5.80;99.90;;;;;;5070328;28;20421;-61
2024/02/07 02:48:24;;;;;;;1.37;0.70;;;5.80;99.90;;;;;;5058887;28;20184;-62
2024/02/07 02:50:50;;;;;;;0.70;0.70;;;5.80;99.90;;;;;;5069361;28;20214;-67
2024/02/07 02:53:18;;;;;;;2.47;0.87;;;5.70;99.90;;;;;;5070686;28;20608;-62
2024/02/07 02:55:45;;;;;;;2.67;1.00;;;5.70;99.90;;;;;;5069606;28;20190;-63
2024/02/07 02:58:11;;;;;;;1.80;0.90;;;5.70;99.90;;;;;;5064647;28;20430;-63
2024/02/07 03:00:37;;;;;;;0.80;0.80;;;5.60;99.90;;;;;;5069547;28;20582;-63
2024/02/07 03:03:03;;;;;;;0.70;0.70;;;5.60;99.90;;;;;;5070095;28;20469;-62
2024/02/07 03:05:45;;;;;;;1.20;0.87;;;5.60;99.90;;;;;;5070186;28;20182;-63
2024/02/07 03:08:21;;;;;;;1.00;1.00;;;5.50;99.90;;;;;;5069899;28;20236;-62
2024/02/07 03:10:49;;;;;;;2.80;2.60;;;5.50;99.90;;;;;;5069600;28;20439;-61
2024/02/07 03:13:15;;;;;;;0.90;0.87;;;5.40;99.90;;;;;;5067706;28;20435;-62
2024/02/07 03:15:43;;;;;;;1.27;0.87;;;5.40;99.90;;;;;;5065602;28;20508;-62
2024/02/07 03:18:09;;;;;;;1.57;0.80;;;5.30;99.90;;;;;;5069772;28;20429;-62
2024/02/07 03:20:35;;;;;;;0.80;0.80;;;5.30;99.90;;;;;;5069551;28;20941;-62
2024/02/07 03:23:00;;;;;;;0.97;0.87;;;5.30;99.90;;;;;;5069519;28;20684;-63
2024/02/07 03:25:26;;;;;;;2.10;0.90;;;5.20;99.90;;;;;;5070000;28;20421;-63
2024/02/07 03:27:52;;;;;;;0.70;0.70;;;5.20;99.90;;;;;;5069492;28;20260;-63
2024/02/07 03:30:21;;;;;;;0.80;0.80;;;5.10;99.90;;;;;;5064799;28;20203;-63
2024/02/07 03:32:47;;;;;;;0.70;0.70;;;5.10;99.90;;;;;;5068966;28;20585;-63
2024/02/07 03:35:14;;;;;;;3.13;0.77;;;5.00;99.90;;;;;;5069604;28;20431;-63
2024/02/07 03:37:40;;;;;;;0.80;0.80;;;5.00;99.90;;;;;;5069701;28;20413;-63
2024/02/07 03:40:16;;;;;;;0.73;0.73;;;4.90;99.90;;;;;;5072109;28;20455;-63
2024/02/07 03:42:42;;;;;;;2.30;0.80;;;4.90;99.90;;;;;;5073422;28;20495;-63
2024/02/07 03:45:11;;;;;;;2.33;0.90;;;4.90;99.90;;;;;;5073818;28;20824;-63
2024/02/07 03:47:40;;;;;;;1.07;0.77;;;4.70;99.90;;;;;;5071354;28;20412;-62
2024/02/07 03:50:12;;;;;;;0.70;0.70;;;4.60;99.90;;;;;;5073464;28;20451;-62
2024/02/07 03:52:43;;;;;;;2.20;0.70;;;4.60;99.90;;;;;;5073104;28;20424;-62
2024/02/07 03:55:12;;;;;;;1.77;0.70;;;4.60;99.90;;;;;;5073532;28;20420;-63
2024/02/07 03:57:42;;;;;;;1.10;0.90;;;4.60;99.90;;;;;;5073317;28;20435;-64
2024/02/07 04:00:13;;;;;;;0.80;0.80;;;4.50;99.90;;;;;;5073500;28;20455;-63
2024/02/07 04:02:47;;;;;;;0.80;0.70;;;4.50;99.90;;;;;;5073070;28;20543;-60
2024/02/07 04:05:13;;;;;;;1.50;1.37;;;4.40;99.90;;;;;;5072587;28;20424;-61
2024/02/07 04:07:39;;;;;;;2.40;1.00;;;4.40;99.90;;;;;;5073115;28;20829;-61
2024/02/07 04:10:09;;;;;;;0.90;0.90;;;4.30;99.90;;;;;;5073633;28;20448;-62
2024/02/07 05:15:38;;;;;;;4.20;1.93;;;3.80;99.90;;;;;;5071238;28;20514;-62
2024/02/07 05:18:04;;;;;;;5.03;1.57;;;3.70;99.90;;;;;;5071961;28;20511;-61
2024/02/07 05:20:30;;;;;;;3.57;1.50;;;3.70;99.90;;;;;;5071962;28;20249;-62
2024/02/07 05:22:55;;;;;;;3.17;1.40;;;3.80;99.90;;;;;;5071685;28;20233;-62
2024/02/07 05:25:22;;;;;;;5.97;1.33;;;3.70;99.90;;;;;;5071767;28;20421;-61
2024/02/07 05:27:48;;;;;;;2.30;2.03;;;3.70;99.90;;;;;;5071544;28;20269;-61
2024/02/07 05:30:14;;;;;;;2.40;1.53;;;3.60;99.90;;;;;;5075107;28;20523;-61
2024/02/07 05:32:41;;;;;;;1.50;1.37;;;3.60;99.90;;;;;;5074269;28;20186;-60
2024/02/07 05:35:07;;;;;;;1.77;1.50;;;3.70;99.90;;;;;;5071845;28;20432;-60
2024/02/07 05:37:32;;;;;;;2.30;0.83;;;3.70;99.90;;;;;;5071355;28;20853;-61
2024/02/07 05:39:58;;;;;;;5.30;1.30;;;3.70;99.90;;;;;;5071033;28;20452;-60
2024/02/07 05:42:24;;;;;;;4.33;1.90;;;3.70;99.90;;;;;;5071127;28;20244;-63
2024/02/07 05:44:50;;;;;;;3.00;1.00;;;3.70;99.90;;;;;;5071046;28;20428;-62
2024/02/07 05:47:16;;;;;;;1.17;1.00;;;3.70;99.90;;;;;;5070282;28;20189;-60
2024/02/07 05:49:44;;;;;;;4.20;1.20;;;3.70;99.90;;;;;;5070795;28;20499;-62
2024/02/07 05:52:10;;;;;;;2.30;1.60;;;3.80;99.90;;;;;;5067108;28;20193;-60
2024/02/07 05:54:36;;;;;;;5.60;1.10;;;3.70;99.90;;;;;;5065212;28;20876;-61
2024/02/07 05:57:02;;;;;;;1.33;1.00;;;3.70;99.90;;;;;;5068528;28;20413;-62
2024/02/07 05:59:27;;;;;;;2.63;1.13;;;3.70;99.90;;;;;;5070614;28;20719;-61
2024/02/07 06:01:53;;;;;;;3.20;1.20;;;3.70;99.90;;;;;;5070465;28;20283;-61
2024/02/07 06:04:19;;;;;;;1.90;1.37;;;3.70;99.90;;;;;;5068822;28;20205;-61
2024/02/07 06:06:51;;;;;;;4.40;1.30;;;3.80;99.90;;;;;;5071103;28;20795;-60
2024/02/07 06:09:17;;;;;;;2.23;1.10;;;3.80;99.90;;;;;;5071332;28;20455;-61
2024/02/07 06:11:43;;;;;;;1.23;1.10;;;3.80;99.90;;;;;;5070851;28;20424;-59
2024/02/07 06:14:10;;;;;;;4.50;1.53;;;3.80;99.90;;;;;;5070795;28;20444;-61
2024/02/07 06:16:36;;;;;;;8.00;1.40;;;3.80;99.90;;;;;;5070448;28;20512;-60
2024/02/07 06:19:03;;;;;;;1.83;1.40;;;3.80;99.90;;;;;;5070158;28;20949;-61
2024/02/07 06:21:31;;;;;;;5.50;1.40;;;3.80;99.90;;;;;;5070390;28;20432;-60
2024/02/07 06:23:57;;;;;;;4.70;1.23;;;3.90;99.90;;;;;;5070035;28;20488;-59
2024/02/07 06:26:23;;;;;;;1.47;1.10;;;3.90;99.90;;;;;;5079671;28;20428;-61
2024/02/07 06:28:50;;;;;;;4.03;1.30;;;3.90;99.90;;;;;;5070012;28;20197;-61
2024/02/07 06:31:15;;;;;;;6.00;1.37;;;3.90;99.90;;;;;;5070135;28;20423;-60
2024/02/07 06:33:41;;;;;;;1.60;1.40;;;4.00;99.90;;;;;;5070237;28;20923;-61
2024/02/07 06:36:07;;;;;;;5.83;1.73;;;4.00;99.90;;;;;;5070298;28;20202;-59
2024/02/07 06:38:32;;;;;;;8.20;1.57;;;4.00;99.90;;;;;;5070062;28;20193;-61
2024/02/07 06:40:58;;;;;;;2.40;1.50;;;4.00;99.90;;;;;;5069849;28;20228;-61
2024/02/07 06:43:24;;;;;;;4.17;1.50;;;4.00;99.90;;;;;;5069956;28;20468;-61
2024/02/07 06:45:50;;;;;;;3.07;1.40;;;4.10;99.90;;;;;;5069880;28;20218;-62
2024/02/07 06:48:16;;;;;;;3.03;1.63;;;4.00;99.90;;;;;;5070170;28;20186;-62
2024/02/07 06:50:41;;;;;;;5.30;1.10;;;4.00;99.90;;;;;;5069984;28;20206;-62
2024/02/07 06:53:07;;;;;;;3.50;2.17;;;4.10;99.90;;;;;;5069999;28;20683;-62
2024/02/07 06:55:33;;;;;;;1.50;1.40;;;4.10;99.90;;;;;;5069698;28;20191;-62
2024/02/07 06:57:58;;;;;;;3.30;1.43;;;4.10;99.90;;;;;;5069973;28;20193;-62
2024/02/07 07:00:24;;;;;;;2.37;1.23;;;4.10;99.90;;;;;;5093092;22;20598;-63
2024/02/07 07:02:49;;;;;;;2.87;1.83;;;4.10;99.90;;;;;;5070125;28;20206;-64
2024/02/07 07:05:15;;;;;;;5.83;1.43;;;4.10;99.90;;;;;;5070363;28;20178;-64
2024/02/07 07:07:41;;;;;;;2.60;1.60;;;4.10;99.90;;;;;;5070145;28;20177;-64
2024/02/07 07:10:07;;;;;;;3.63;1.80;;;4.10;99.90;;;;;;5070655;28;20198;-64
2024/02/07 07:12:32;;;;;;;12.23;1.90;;;4.10;99.90;;;;;;5069927;28;20254;-64
2024/02/07 07:14:58;;;;;;;3.80;1.70;;;4.10;99.90;;;;;;5069762;28;20420;-63
2024/02/07 07:17:24;;;;;;;4.13;1.93;;;4.20;99.90;;;;;;5070441;28;20690;-65
2024/02/07 07:19:49;;;;;;;5.13;1.90;;;4.20;99.90;;;;;;5070175;28;20202;-63
2024/02/07 07:22:15;;;;;;;7.20;1.57;;;4.20;99.90;;;;;;5070799;28;20235;-64
2024/02/07 07:24:41;;;;;;;4.90;1.50;;;4.20;99.90;;;;;;5070189;28;20174;-62
2024/02/07 07:27:07;;;;;;;9.67;2.20;;;4.40;99.90;;;;;;5068418;28;20424;-64
2024/02/07 07:29:32;;;;;;;6.40;2.73;;;4.30;99.90;;;;;;5069412;28;20182;-64
2024/02/07 07:31:59;;;;;;;5.80;2.10;;;4.30;99.90;;;;;;5064128;28;20174;-65
2024/02/07 07:34:25;;;;;;;3.33;1.53;;;4.30;99.90;;;;;;5070027;28;20678;-63
2024/02/07 07:36:53;;;;;;;5.77;1.73;;;4.30;99.90;;;;;;5065134;28;20436;-64
2024/02/07 07:39:19;;;;;;;7.63;2.27;;;4.30;99.90;;;;;;5061192;28;20273;-63
2024/02/07 07:41:45;;;;;;;7.53;1.43;;;4.40;99.90;;;;;;5062951;28;20511;-63
2024/02/07 07:44:10;;;;;;;2.53;1.90;;;4.40;99.90;;;;;;5065873;28;20206;-64
2024/02/07 07:46:36;;;;;;;2.13;1.93;;;4.40;99.90;;;;;;5069321;28;20214;-65
2024/02/07 07:49:02;;;;;;;3.73;2.00;;;4.40;99.90;;;;;;5069768;28;20185;-66
2024/02/07 07:51:27;;;;;;;3.93;1.60;;;4.50;99.90;;;;;;5069942;28;20221;-69
2024/02/07 07:53:54;;;;;;;8.20;1.83;;;4.40;99.90;;;;;;5069700;28;20182;-66
2024/02/07 07:56:20;;;;;;;4.57;1.20;;;4.50;99.90;;;;;;5069393;28;20183;-65
2024/02/07 07:58:49;;;;;;;3.50;2.00;;;4.50;99.90;;;;;;5063849;28;20743;-64
2024/02/07 08:01:16;;;;;;;6.43;2.37;;;4.50;99.90;;;;;;5065080;28;20218;-65
2024/02/07 08:03:42;;;;;;;7.47;1.73;;;4.60;99.90;;;;;;5060600;28;20452;-65
2024/02/07 08:06:08;;;;;;;4.50;3.93;;;4.60;99.90;;;;;;5060380;28;20425;-64
2024/02/07 08:08:34;;;;;;;5.37;2.03;;;4.70;99.90;;;;;;5070162;28;20170;-64
2024/02/07 08:11:00;;;;;;;2.30;1.73;;;4.60;99.90;;;;;;5068629;28;20917;-63
2024/02/07 08:13:26;;;;;;;6.93;2.53;;;4.60;99.90;;;;;;5063266;28;20635;-64
2024/02/07 08:15:51;;;;;;;6.50;1.97;;;4.70;99.90;;;;;;5064573;28;20190;-63
2024/02/07 08:18:17;;;;;;;3.23;1.90;;;4.70;99.90;;;;;;5066794;28;20178;-63
2024/02/07 08:20:43;;;;;;;3.80;1.47;;;4.80;99.90;;;;;;5068922;28;20194;-63
2024/02/07 08:23:08;;;;;;;2.77;1.80;;;4.90;99.90;;;;;;5069307;28;20248;-63
2024/02/07 08:25:34;;;;;;;8.13;1.90;;;4.90;99.90;;;;;;5071180;28;20214;-65
2024/02/07 08:27:59;;;;;;;4.67;2.57;;;4.90;99.90;;;;;;5081399;28;20175;-62
2024/02/07 08:30:25;;;;;;;4.50;2.33;;;4.90;99.90;;;;;;5076054;28;20193;-64
2024/02/07 08:32:51;;;;;;;5.43;2.60;;;4.90;99.90;;;;;;5075365;28;20221;-64
2024/02/07 08:35:17;;;;;;;14.33;3.13;;;5.00;99.90;;;;;;5073622;28;20185;-63
2024/02/07 08:37:43;;;;;;;5.43;2.50;;;5.00;99.90;;;;;;5072452;28;20182;-63
2024/02/07 08:40:09;;;;;;;6.33;4.43;;;4.90;99.90;;;;;;5073922;28;20198;-64
2024/02/07 08:42:37;;;;;;;8.63;2.90;;;4.90;99.90;;;;;;5075194;28;20451;-63
2024/02/07 08:45:03;;;;;;;6.43;3.07;;;5.00;99.90;;;;;;5074147;28;20412;-64
2024/02/07 08:47:29;;;;;;;12.83;2.60;;;5.10;99.90;;;;;;5072765;28;20500;-63
2024/02/07 08:49:55;;;;;;;6.93;2.43;;;5.00;99.90;;;;;;5072674;28;21095;-63
2024/02/07 08:52:20;;;;;;;5.43;2.40;;;5.10;99.90;;;;;;5072607;28;20237;-62
2024/02/07 08:54:47;;;;;;;3.53;2.07;;;5.10;99.90;;;;;;5071880;28;20171;-62
2024/02/07 08:57:13;;;;;;;6.07;2.00;;;5.20;99.90;;;;;;5071867;28;20182;-64
2024/02/07 08:59:39;;;;;;;9.00;3.93;;;5.20;99.90;;;;;;5072775;28;20417;-62
2024/02/07 09:02:06;;;;;;;7.43;3.20;;;5.20;99.90;;;;;;5072175;28;20187;-64
2024/02/07 09:04:32;;;;;;;6.33;2.60;;;5.20;99.90;;;;;;5066416;28;20190;-64
2024/02/07 09:06:58;;;;;;;8.27;3.40;;;5.20;99.90;;;;;;5070327;28;20408;-64
2024/02/07 09:09:24;;;;;;;10.03;3.63;;;5.30;99.90;;;;;;5072283;28;20679;-64
2024/02/07 09:11:49;;;;;;;5.27;2.57;;;5.40;99.90;;;;;;5068168;28;20444;-64
2024/02/07 09:14:15;;;;;;;5.63;2.60;;;5.30;99.90;;;;;;5072417;28;20726;-63
2024/02/07 09:16:40;;;;;;;3.53;2.37;;;5.30;99.90;;;;;;5072330;28;20597;-63
2024/02/07 09:19:06;;;;;;;6.27;2.60;;;5.30;99.90;;;;;;5072101;28;20196;-64
2024/02/07 09:21:32;;;;;;;7.00;3.10;;;5.30;99.90;;;;;;5069737;28;20676;-63
2024/02/07 09:23:59;;;;;;;7.93;3.03;;;5.30;99.90;;;;;;5063635;28;20210;-64
2024/02/07 09:26:31;;;;;;;7.67;2.43;;;5.40;99.90;;;;;;5071770;28;20179;-64
2024/02/07 09:28:57;;;;;;;8.63;1.87;;;5.50;99.90;;;;;;5069932;28;20434;-62
2024/02/07 09:31:22;;;;;;;3.10;1.93;;;5.60;99.90;;;;;;5071836;28;20439;-66
2024/02/07 09:33:48;;;;;;;9.80;2.13;;;5.50;99.90;;;;;;5071779;28;20182;-66
2024/02/07 09:36:13;;;;;;;24.67;2.67;;;5.40;99.90;;;;;;5071624;28;20178;-66
2024/02/07 09:38:39;;;;;;;3.30;1.63;;;5.40;99.90;;;;;;5071326;28;20183;-65
2024/02/07 09:41:07;;;;;;;10.27;2.30;;;5.50;99.90;;;;;;5070940;28;20203;-63
2024/02/07 09:43:33;;;;;;;5.27;1.93;;;5.50;99.90;;;;;;5067526;28;20284;-66
2024/02/07 09:46:00;;;;;;;4.63;1.97;;;5.50;99.90;;;;;;5069656;28;20413;-66
2024/02/07 09:48:26;;;;;;;5.30;1.70;;;5.50;99.90;;;;;;5069501;28;20425;-67
2024/02/07 09:50:59;;;;;;;5.13;2.30;;;5.60;99.90;;;;;;5067243;28;20466;-64
2024/02/07 09:53:26;;;;;;;5.90;2.20;;;5.50;99.90;;;;;;5067302;28;20423;-64
2024/02/07 09:55:55;;;;;;;4.83;2.43;;;5.50;99.90;;;;;;5070837;28;20475;-63
2024/02/07 09:58:21;;;;;;;8.17;2.30;;;5.50;99.90;;;;;;5071147;28;20424;-64
2024/02/07 10:00:50;;;;;;;3.90;1.67;;;5.60;99.90;;;;;;5069868;28;20460;-65
2024/02/07 10:03:17;;;;;;;3.13;1.77;;;5.50;99.90;;;;;;5070394;28;20209;-63
2024/02/07 10:05:52;;;;;;;9.93;2.40;;;5.60;99.90;;;;;;5070487;28;20759;-63
2024/02/07 10:08:17;;;;;;;11.00;3.70;;;5.60;99.90;;;;;;5068969;28;20412;-65
2024/02/07 10:10:48;;;;;;;14.50;2.30;;;5.70;99.90;;;;;;5070694;28;20428;-65
2024/02/07 10:13:18;;;;;;;4.93;1.53;;;5.60;99.90;;;;;;5070376;28;20542;-64
2024/02/07 10:15:44;;;;;;;5.80;2.10;;;5.50;99.90;;;;;;5068125;28;20417;-64
2024/02/07 10:18:13;;;;;;;3.80;1.60;;;5.40;99.90;;;;;;5068198;28;20943;-65
2024/02/07 10:20:39;;;;;;;7.00;1.60;;;5.60;99.90;;;;;;5070362;28;20444;-65
2024/02/07 10:23:09;;;;;;;8.30;2.87;;;5.60;99.90;;;;;;5070276;28;20482;-64
2024/02/07 10:25:35;;;;;;;4.23;1.50;;;5.60;99.90;;;;;;5070490;28;20451;-64
2024/02/07 10:28:05;;;;;;;5.00;1.60;;;5.70;99.90;;;;;;5070227;28;20489;-63
2024/02/07 10:30:31;;;;;;;6.13;2.53;;;5.80;99.90;;;;;;5070153;28;20491;-64
2024/02/07 10:32:57;;;;;;;3.67;1.73;;;5.60;99.90;;;;;;5070066;28;20813;-64
2024/02/07 10:35:22;;;;;;;6.53;1.50;;;5.50;99.90;;;;;;5067748;28;20429;-64
2024/02/07 10:37:52;;;;;;;5.50;2.10;;;5.50;99.90;;;;;;5069896;28;20481;-64
2024/02/07 10:40:19;;;;;;;5.80;1.80;;;5.50;99.90;;;;;;5067955;28;20460;-65
2024/02/07 10:42:56;;;;;;;5.70;1.87;;;5.50;99.90;;;;;;5070267;28;20447;-65
2024/02/07 10:45:22;;;;;;;4.27;1.70;;;5.60;99.90;;;;;;5060351;28;20413;-66
2024/02/07 10:47:51;;;;;;;5.13;2.07;;;5.70;99.90;;;;;;5067114;28;21093;-65
2024/02/07 10:50:17;;;;;;;16.10;2.37;;;5.80;99.90;;;;;;5069747;28;20467;-64
2024/02/07 10:52:43;;;;;;;5.73;1.70;;;5.90;99.90;;;;;;5069245;28;20426;-64
2024/02/07 10:55:11;;;;;;;5.80;2.00;;;6.00;99.90;;;;;;5067093;28;20418;-67
2024/02/07 10:57:38;;;;;;;10.77;3.53;;;6.10;99.90;;;;;;5068462;28;20762;-65
2024/02/07 11:00:05;;;;;;;8.63;2.33;;;5.90;99.90;;;;;;5069824;28;20459;-67
2024/02/07 11:02:32;;;;;;;7.30;2.30;;;5.80;99.90;;;;;;5065115;28;20562;-64
2024/02/07 11:05:00;;;;;;;7.57;2.27;;;5.80;99.90;;;;;;5069882;28;20474;-65
2024/02/07 11:07:26;;;;;;;2.30;1.50;;;5.60;99.90;;;;;;5065315;28;20417;-65
2024/02/07 11:09:53;;;;;;;5.87;1.40;;;5.60;99.90;;;;;;5067678;28;20897;-64
2024/02/07 11:12:19;;;;;;;5.23;1.50;;;5.50;99.90;;;;;;5069519;28;20444;-65
2024/02/07 11:14:46;;;;;;;3.50;1.50;;;5.40;99.90;;;;;;5068909;28;20444;-63
2024/02/07 11:17:16;;;;;;;4.40;1.63;;;5.50;99.90;;;;;;5065847;28;20425;-65
2024/02/07 11:19:44;;;;;;;12.17;2.33;;;5.50;99.90;;;;;;5063117;28;20431;-64
2024/02/07 11:22:28;;;;;;;2.47;1.90;;;5.50;99.90;;;;;;5069535;28;20415;-65
2024/02/07 11:24:56;;;;;;;2.43;1.77;;;5.50;99.90;;;;;;5065915;28;20493;-64
2024/02/07 11:27:22;;;;;;;11.03;1.87;;;5.50;99.90;;;;;;5062803;28;20438;-65
2024/02/07 11:29:48;;;;;;;4.23;1.63;;;5.50;99.90;;;;;;5061227;28;20449;-67
2024/02/07 11:32:14;;;;;;;3.37;1.70;;;5.60;99.90;;;;;;5062788;28;20832;-63
2024/02/07 11:34:40;;;;;;;4.67;2.30;;;5.70;99.90;;;;;;5061936;28;20178;-64
2024/02/07 11:37:10;;;;;;;8.43;1.80;;;5.70;99.90;;;;;;5069833;28;20683;-63
2024/02/07 11:39:38;;;;;;;5.70;1.37;;;5.80;99.90;;;;;;5070189;28;20446;-64
2024/02/07 11:42:12;;;;;;;7.87;1.47;;;5.90;99.90;;;;;;5064734;28;20490;-64
2024/02/07 11:44:52;;;;;;;10.70;2.27;;;6.10;99.90;;;;;;5069255;28;20474;-64
2024/02/07 11:47:30;;;;;;;5.63;1.83;;;6.40;99.90;;;;;;5069409;28;20416;-63
2024/02/07 11:49:59;;;;;;;5.50;1.73;;;6.40;99.90;;;;;;5064804;28;20461;-64
2024/02/07 11:52:32;;;;;;;3.20;1.60;;;6.50;99.90;;;;;;5059461;28;20523;-64
2024/02/07 11:55:08;;;;;;;3.73;1.57;;;6.30;99.90;;;;;;5061918;28;20438;-65
2024/02/07 11:57:34;;;;;;;7.47;2.10;;;6.20;99.90;;;;;;5069843;28;20809;-64
2024/02/07 12:00:05;;;;;;;2.60;1.77;;;6.30;99.90;;;;;;5066434;28;20452;-61
2024/02/07 12:02:31;;;;;;;10.00;2.30;;;6.10;99.90;;;;;;5072356;28;20750;-63
2024/02/07 12:04:57;;;;;;;9.00;2.10;;;6.10;99.90;;;;;;5078706;28;20407;-63
2024/02/07 12:07:24;;;;;;;7.60;1.83;;;6.30;99.90;;;;;;5072935;28;20420;-62
2024/02/07 12:09:50;;;;;;;6.30;2.23;;;6.30;99.90;;;;;;5070511;28;20417;-61
2024/02/07 12:12:16;;;;;;;14.47;1.87;;;6.30;99.90;;;;;;5067322;28;20425;-65
2024/02/07 12:14:42;;;;;;;8.47;2.10;;;6.40;99.90;;;;;;5073495;28;20405;-62
2024/02/07 12:17:08;;;;;;;6.33;3.27;;;6.30;99.90;;;;;;5071803;28;20520;-63
2024/02/07 12:19:36;;;;;;;6.03;2.33;;;6.40;99.90;;;;;;5071509;28;20412;-61
2024/02/07 12:22:02;;;;;;;10.03;1.97;;;6.30;99.90;;;;;;5073090;28;20898;-59
2024/02/07 12:24:32;;;;;;;6.73;2.30;;;6.20;99.90;;;;;;5069942;28;20460;-63
2024/02/07 12:27:13;;;;;;;4.23;1.93;;;6.20;99.90;;;;;;5072997;28;20493;-58
2024/02/07 12:29:46;;;;;;;5.83;1.70;;;6.20;99.90;;;;;;5065949;28;20414;-64
2024/02/07 12:32:12;;;;;;;4.40;1.53;;;6.20;99.90;;;;;;5066146;28;20424;-60
2024/02/07 12:34:39;;;;;;;41.23;4.30;;;6.20;99.90;;;;;;5064060;28;20422;-63
2024/02/07 12:37:05;;;;;;;3.60;1.40;;;6.20;99.90;;;;;;5064987;28;20185;-63
2024/02/07 12:39:31;;;;;;;12.53;3.03;;;6.20;99.90;;;;;;5071553;28;20417;-63
2024/02/07 12:41:56;;;;;;;9.60;2.00;;;6.20;99.90;;;;;;5072596;28;20486;-65
2024/02/07 12:44:25;;;;;;;4.73;1.50;;;6.10;99.90;;;;;;5072525;28;20314;-61
2024/02/07 12:46:51;;;;;;;3.73;1.73;;;6.00;99.90;;;;;;5064829;28;20256;-63
2024/02/07 12:49:16;;;;;;;6.80;2.10;;;6.00;99.90;;;;;;5071452;28;20519;-62
2024/02/07 12:51:42;;;;;;;5.30;1.83;;;6.00;99.90;;;;;;5070689;28;20826;-61
2024/02/07 12:54:08;;;;;;;5.40;1.70;;;6.10;99.90;;;;;;5066980;28;20186;-63
2024/02/07 12:56:34;;;;;;;3.27;1.50;;;6.00;99.90;;;;;;5070899;28;20186;-65
2024/02/07 12:58:59;;;;;;;10.07;1.90;;;6.10;99.90;;;;;;5064379;28;20908;-64
2024/02/07 13:01:25;;;;;;;8.27;2.37;;;6.10;99.90;;;;;;5065552;28;20211;-65
2024/02/07 13:03:51;;;;;;;10.07;1.93;;;6.20;99.90;;;;;;5072103;28;20748;-61
2024/02/07 13:06:18;;;;;;;8.77;2.27;;;6.20;99.90;;;;;;5072205;28;20181;-63
2024/02/07 13:08:44;;;;;;;3.50;1.20;;;6.20;99.90;;;;;;5068454;28;20176;-62
2024/02/07 13:11:09;;;;;;;7.50;1.60;;;6.30;99.90;;;;;;5071282;28;20492;-63
2024/02/07 13:13:35;;;;;;;8.10;1.90;;;6.20;99.90;;;;;;5067749;28;20237;-62
2024/02/07 13:16:00;;;;;;;3.00;1.30;;;6.20;99.90;;;;;;5061129;28;20179;-62
2024/02/07 13:18:26;;;;;;;5.13;2.87;;;6.40;99.90;;;;;;5071012;28;20632;-65
2024/02/07 13:20:52;;;;;;;5.27;1.77;;;6.60;99.90;;;;;;5065915;28;20234;-63
2024/02/07 13:23:23;;;;;;;2.10;1.30;;;6.50;99.90;;;;;;5071069;28;20199;-62
2024/02/07 13:25:50;;;;;;;4.97;1.40;;;6.40;99.90;;;;;;5066527;28;20426;-63
2024/02/07 13:28:16;;;;;;;11.13;1.80;;;6.30;99.90;;;;;;5070132;28;20425;-64
2024/02/07 13:30:42;;;;;;;8.93;2.90;;;6.50;99.90;;;;;;5068436;28;20439;-67
2024/02/07 13:33:08;;;;;;;3.43;1.43;;;6.50;99.90;;;;;;5067966;28;20503;-66
2024/02/07 13:35:33;;;;;;;7.57;2.00;;;6.70;99.90;;;;;;5068682;28;20182;-63
2024/02/07 13:38:00;;;;;;;3.33;1.37;;;6.50;99.90;;;;;;5068810;28;20421;-66
2024/02/07 13:40:26;;;;;;;5.60;1.73;;;6.40;99.90;;;;;;5071682;28;20206;-64
2024/02/07 13:42:53;;;;;;;6.20;1.70;;;6.30;99.90;;;;;;5075083;28;20451;-67
2024/02/07 13:45:19;;;;;;;5.10;1.50;;;6.10;99.90;;;;;;5068139;28;20499;-63
2024/02/07 13:47:47;;;;;;;7.10;1.80;;;6.10;99.90;;;;;;5071707;28;20429;-66
2024/02/07 13:50:13;;;;;;;5.50;1.60;;;6.10;99.90;;;;;;5066513;28;20439;-63
2024/02/07 13:52:38;;;;;;;3.63;1.40;;;6.20;99.90;;;;;;5063380;28;20524;-63
2024/02/07 13:55:04;;;;;;;3.33;1.73;;;6.00;99.90;;;;;;5071365;28;20194;-65
2024/02/07 13:57:31;;;;;;;4.03;1.50;;;6.00;99.90;;;;;;5071364;28;20282;-63